createdAt,value
2022-12-29T14:06:25.612Z,15.60
2022-12-29T14:11:40.131Z,15.50
2022-12-29T14:16:44.117Z,15.40
2022-12-29T14:21:57.963Z,15.30
2022-12-29T14:27:00.432Z,15.30
2022-12-29T14:32:28.002Z,15.40
2022-12-29T14:37:48.443Z,15.40
2022-12-29T14:56:05.044Z,15.20
2022-12-29T15:01:28.054Z,15.20
2022-12-29T15:06:43.050Z,15.30
2022-12-29T15:23:49.491Z,15.20
2022-12-29T15:28:58.882Z,15.10
2022-12-29T15:34:12.527Z,15.10
2022-12-29T15:39:21.974Z,15.00
2022-12-29T15:44:29.340Z,15.00
2022-12-29T15:49:32.624Z,15.00
2022-12-29T15:54:35.026Z,15.00
2022-12-29T15:59:36.883Z,15.00
2022-12-29T16:05:01.341Z,15.00
2022-12-29T16:10:02.617Z,15.00
2022-12-29T16:15:13.775Z,14.90
2022-12-29T16:20:20.048Z,14.90
2022-12-29T16:25:35.337Z,14.80
2022-12-29T16:30:37.321Z,14.80
2022-12-29T16:35:45.074Z,14.70
2022-12-29T16:40:58.111Z,14.60
2022-12-29T16:46:00.219Z,14.50
2022-12-29T16:51:04.061Z,14.50
2022-12-29T16:56:18.486Z,14.50
2022-12-29T17:01:21.512Z,14.60
2022-12-29T17:06:24.064Z,14.70
2022-12-29T17:11:44.539Z,14.80
2022-12-29T17:16:47.262Z,14.80
2022-12-29T17:21:49.078Z,14.90
2022-12-29T17:26:54.399Z,15.00
2022-12-29T17:31:56.380Z,15.00
2022-12-29T17:36:58.267Z,15.00
2022-12-29T17:42:00.164Z,14.90
2022-12-29T17:47:02.044Z,14.80
2022-12-29T17:52:05.050Z,14.60
2022-12-29T17:57:09.627Z,14.30
2022-12-29T18:02:30.919Z,13.90
2022-12-29T18:07:36.076Z,13.60
2022-12-29T18:12:40.657Z,13.40
2022-12-29T18:17:42.470Z,13.30
2022-12-29T18:22:44.336Z,13.20
2022-12-29T18:27:46.221Z,13.10
2022-12-29T18:32:48.278Z,13.00
2022-12-29T18:37:50.156Z,12.90
2022-12-29T18:42:51.985Z,12.90
2022-12-29T18:47:53.865Z,12.90
2022-12-29T18:53:01.649Z,12.80
2022-12-29T18:58:05.446Z,12.80
2022-12-29T19:03:07.543Z,12.70
2022-12-29T19:08:10.702Z,12.70
2022-12-29T19:13:23.555Z,12.60
2022-12-29T19:18:44.510Z,12.70
2022-12-29T19:23:48.341Z,12.60
2022-12-29T19:28:50.158Z,12.50
2022-12-29T19:33:52.623Z,12.50
2022-12-29T19:38:54.782Z,12.60
2022-12-29T19:43:56.563Z,12.60
2022-12-29T19:48:59.969Z,12.60
2022-12-29T19:54:01.846Z,12.70
2022-12-29T19:59:03.671Z,12.60
2022-12-29T20:04:05.655Z,12.60
2022-12-29T20:09:07.621Z,12.50
2022-12-29T20:14:09.416Z,12.50
2022-12-29T20:19:11.331Z,12.50
2022-12-29T20:24:13.319Z,12.50
2022-12-29T20:29:16.200Z,12.50
2022-12-29T20:34:19.540Z,12.50
2022-12-29T20:39:21.425Z,12.50
2022-12-29T20:44:23.368Z,12.50
2022-12-29T20:49:25.939Z,12.60
2022-12-29T20:54:27.794Z,12.60
2022-12-29T20:59:29.832Z,12.50
2022-12-29T21:04:50.070Z,12.60
2022-12-29T21:09:54.399Z,12.50
2022-12-29T21:14:56.260Z,12.60
2022-12-29T21:19:58.098Z,12.50
2022-12-29T21:24:59.948Z,12.50
2022-12-29T21:30:01.786Z,12.50
2022-12-29T21:35:03.712Z,12.50
2022-12-29T21:40:06.186Z,12.50
2022-12-29T21:45:26.017Z,12.50
2022-12-29T21:50:28.052Z,12.50
2022-12-29T21:55:32.004Z,12.40
2022-12-29T22:00:52.387Z,12.30
2022-12-29T22:06:12.798Z,12.40
2022-12-29T22:11:33.116Z,12.40
2022-12-29T22:16:35.190Z,12.30
2022-12-29T22:21:37.134Z,12.40
2022-12-29T22:26:39.152Z,12.40
2022-12-29T22:31:41.177Z,12.30
2022-12-29T22:36:48.657Z,12.40
2022-12-29T22:41:51.006Z,12.30
2022-12-29T22:46:53.018Z,12.30
2022-12-29T22:51:55.029Z,12.30
2022-12-29T22:56:56.923Z,12.40
2022-12-29T23:01:58.905Z,12.40
2022-12-29T23:07:00.886Z,12.30
2022-12-29T23:12:03.000Z,12.30
2022-12-29T23:17:05.128Z,12.20
2022-12-29T23:22:07.319Z,12.10
2022-12-29T23:27:09.318Z,12.10
2022-12-29T23:32:11.181Z,12.10
2022-12-29T23:37:13.247Z,12.00
2022-12-29T23:42:15.250Z,12.00
2022-12-29T23:47:17.082Z,12.10
2022-12-29T23:52:18.968Z,12.10
2022-12-29T23:57:20.864Z,12.00
